sensor_id;sensor_type;location;lat;lon;timestamp;P1;durP1;ratioP1;P2;durP2;ratioP2
6077;SDS011;3067;49.470;10.394;2022-08-07T00:02:09;1.30;;;1.20;;
6077;SDS011;3067;49.470;10.394;2022-08-07T00:04:36;8.20;;;1.20;;
6077;SDS011;3067;49.470;10.394;2022-08-07T00:07:03;1.80;;;1.00;;
6077;SDS011;3067;49.470;10.394;2022-08-07T00:09:32;0.90;;;0.90;;
6077;SDS011;3067;49.470;10.394;2022-08-07T00:11:59;1.83;;;0.90;;
6077;SDS011;3067;49.470;10.394;2022-08-07T00:14:27;1.03;;;0.90;;
6077;SDS011;3067;49.470;10.394;2022-08-07T00:16:55;3.30;;;1.20;;
6077;SDS011;3067;49.470;10.394;2022-08-07T00:19:22;1.00;;;0.93;;
6077;SDS011;3067;49.470;10.394;2022-08-07T00:21:50;1.97;;;1.27;;
6077;SDS011;3067;49.470;10.394;2022-08-07T00:24:17;0.90;;;0.87;;
6077;SDS011;3067;49.470;10.394;2022-08-07T00:26:46;0.83;;;0.83;;
6077;SDS011;3067;49.470;10.394;2022-08-07T00:29:15;0.90;;;0.90;;
6077;SDS011;3067;49.470;10.394;2022-08-07T00:31:43;1.20;;;1.10;;
6077;SDS011;3067;49.470;10.394;2022-08-07T00:34:10;1.10;;;0.90;;
6077;SDS011;3067;49.470;10.394;2022-08-07T00:36:37;3.47;;;0.97;;
6077;SDS011;3067;49.470;10.394;2022-08-07T00:39:05;0.80;;;0.80;;
6077;SDS011;3067;49.470;10.394;2022-08-07T00:41:32;1.03;;;1.03;;
6077;SDS011;3067;49.470;10.394;2022-08-07T00:44:01;0.83;;;0.83;;
6077;SDS011;3067;49.470;10.394;2022-08-07T00:46:29;2.00;;;0.80;;
6077;SDS011;3067;49.470;10.394;2022-08-07T00:48:56;1.20;;;1.10;;
6077;SDS011;3067;49.470;10.394;2022-08-07T00:51:26;1.00;;;0.80;;
6077;SDS011;3067;49.470;10.394;2022-08-07T00:53:53;1.83;;;1.20;;
6077;SDS011;3067;49.470;10.394;2022-08-07T00:56:21;1.00;;;1.00;;
6077;SDS011;3067;49.470;10.394;2022-08-07T00:58:48;1.63;;;1.00;;
6077;SDS011;3067;49.470;10.394;2022-08-07T01:01:17;1.83;;;1.03;;
6077;SDS011;3067;49.470;10.394;2022-08-07T01:03:45;1.20;;;1.20;;
6077;SDS011;3067;49.470;10.394;2022-08-07T01:06:12;3.23;;;1.20;;
6077;SDS011;3067;49.470;10.394;2022-08-07T01:08:40;2.03;;;1.27;;
6077;SDS011;3067;49.470;10.394;2022-08-07T01:11:07;2.20;;;1.10;;
6077;SDS011;3067;49.470;10.394;2022-08-07T01:13:35;1.00;;;0.90;;
6077;SDS011;3067;49.470;10.394;2022-08-07T01:16:02;1.43;;;1.33;;
6077;SDS011;3067;49.470;10.394;2022-08-07T01:18:32;1.00;;;1.00;;
6077;SDS011;3067;49.470;10.394;2022-08-07T01:21:07;3.03;;;1.23;;
6077;SDS011;3067;49.470;10.394;2022-08-07T01:23:35;1.37;;;1.37;;
6077;SDS011;3067;49.470;10.394;2022-08-07T01:26:03;6.20;;;1.10;;
6077;SDS011;3067;49.470;10.394;2022-08-07T01:28:30;1.30;;;1.20;;
6077;SDS011;3067;49.470;10.394;2022-08-07T01:30:59;2.30;;;1.10;;
6077;SDS011;3067;49.470;10.394;2022-08-07T01:33:27;1.03;;;1.00;;
6077;SDS011;3067;49.470;10.394;2022-08-07T01:35:55;0.90;;;0.90;;
6077;SDS011;3067;49.470;10.394;2022-08-07T01:38:24;2.97;;;1.30;;
6077;SDS011;3067;49.470;10.394;2022-08-07T01:40:52;3.37;;;1.00;;
6077;SDS011;3067;49.470;10.394;2022-08-07T01:43:20;1.77;;;1.10;;
6077;SDS011;3067;49.470;10.394;2022-08-07T01:45:48;1.27;;;1.17;;
6077;SDS011;3067;49.470;10.394;2022-08-07T01:48:15;1.10;;;1.00;;
6077;SDS011;3067;49.470;10.394;2022-08-07T01:50:44;1.33;;;1.10;;
6077;SDS011;3067;49.470;10.394;2022-08-07T01:53:14;1.40;;;1.30;;
6077;SDS011;3067;49.470;10.394;2022-08-07T01:55:44;2.10;;;1.17;;
6077;SDS011;3067;49.470;10.394;2022-08-07T01:58:13;5.07;;;1.63;;
6077;SDS011;3067;49.470;10.394;2022-08-07T02:00:41;2.00;;;1.07;;
6077;SDS011;3067;49.470;10.394;2022-08-07T02:03:11;1.10;;;1.10;;
6077;SDS011;3067;49.470;10.394;2022-08-07T02:05:40;1.57;;;1.17;;
6077;SDS011;3067;49.470;10.394;2022-08-07T02:08:09;1.73;;;1.23;;
6077;SDS011;3067;49.470;10.394;2022-08-07T02:10:37;2.30;;;1.20;;
6077;SDS011;3067;49.470;10.394;2022-08-07T02:13:06;2.70;;;1.30;;
6077;SDS011;3067;49.470;10.394;2022-08-07T02:15:35;1.50;;;1.20;;
6077;SDS011;3067;49.470;10.394;2022-08-07T02:18:03;1.20;;;1.20;;
6077;SDS011;3067;49.470;10.394;2022-08-07T02:20:31;1.60;;;1.50;;
6077;SDS011;3067;49.470;10.394;2022-08-07T02:22:59;4.53;;;1.40;;
6077;SDS011;3067;49.470;10.394;2022-08-07T02:25:28;1.93;;;1.20;;
6077;SDS011;3067;49.470;10.394;2022-08-07T02:27:56;1.43;;;1.33;;
6077;SDS011;3067;49.470;10.394;2022-08-07T02:30:26;2.30;;;1.27;;
6077;SDS011;3067;49.470;10.394;2022-08-07T02:32:54;1.20;;;1.20;;
6077;SDS011;3067;49.470;10.394;2022-08-07T02:35:22;1.97;;;1.37;;
6077;SDS011;3067;49.470;10.394;2022-08-07T02:37:50;1.30;;;1.30;;
6077;SDS011;3067;49.470;10.394;2022-08-07T02:40:18;1.40;;;1.30;;
6077;SDS011;3067;49.470;10.394;2022-08-07T02:42:45;2.50;;;1.10;;
6077;SDS011;3067;49.470;10.394;2022-08-07T02:45:13;1.57;;;1.30;;
6077;SDS011;3067;49.470;10.394;2022-08-07T02:47:44;1.50;;;1.40;;
6077;SDS011;3067;49.470;10.394;2022-08-07T02:50:11;1.23;;;1.23;;
6077;SDS011;3067;49.470;10.394;2022-08-07T02:52:40;1.40;;;1.40;;
6077;SDS011;3067;49.470;10.394;2022-08-07T02:55:10;2.07;;;1.20;;
6077;SDS011;3067;49.470;10.394;2022-08-07T02:57:38;2.13;;;1.93;;
6077;SDS011;3067;49.470;10.394;2022-08-07T03:00:06;1.37;;;1.27;;
6077;SDS011;3067;49.470;10.394;2022-08-07T03:02:34;2.13;;;1.20;;
6077;SDS011;3067;49.470;10.394;2022-08-07T03:05:04;1.20;;;1.20;;
6077;SDS011;3067;49.470;10.394;2022-08-07T03:07:32;2.50;;;1.60;;
6077;SDS011;3067;49.470;10.394;2022-08-07T03:10:00;2.07;;;1.40;;
6077;SDS011;3067;49.470;10.394;2022-08-07T03:12:28;1.90;;;1.53;;
6077;SDS011;3067;49.470;10.394;2022-08-07T03:14:55;1.80;;;1.60;;
6077;SDS011;3067;49.470;10.394;2022-08-07T03:17:23;1.63;;;1.53;;
6077;SDS011;3067;49.470;10.394;2022-08-07T03:19:50;1.60;;;1.50;;
6077;SDS011;3067;49.470;10.394;2022-08-07T03:22:20;7.00;;;1.33;;
6077;SDS011;3067;49.470;10.394;2022-08-07T03:24:48;1.40;;;1.40;;
6077;SDS011;3067;49.470;10.394;2022-08-07T03:27:15;1.60;;;1.50;;
6077;SDS011;3067;49.470;10.394;2022-08-07T03:29:44;1.70;;;1.70;;
6077;SDS011;3067;49.470;10.394;2022-08-07T03:32:12;5.87;;;1.60;;
6077;SDS011;3067;49.470;10.394;2022-08-07T03:34:42;1.53;;;1.43;;
6077;SDS011;3067;49.470;10.394;2022-08-07T03:37:10;5.70;;;1.63;;
6077;SDS011;3067;49.470;10.394;2022-08-07T03:39:40;6.53;;;1.37;;
6077;SDS011;3067;49.470;10.394;2022-08-07T03:42:08;7.23;;;1.50;;
6077;SDS011;3067;49.470;10.394;2022-08-07T03:44:36;1.90;;;1.80;;
6077;SDS011;3067;49.470;10.394;2022-08-07T03:47:04;1.50;;;1.50;;
6077;SDS011;3067;49.470;10.394;2022-08-07T03:49:32;2.60;;;1.63;;
6077;SDS011;3067;49.470;10.394;2022-08-07T03:52:00;18.20;;;2.80;;
6077;SDS011;3067;49.470;10.394;2022-08-07T03:54:27;1.83;;;1.40;;
6077;SDS011;3067;49.470;10.394;2022-08-07T03:56:56;15.70;;;2.10;;
6077;SDS011;3067;49.470;10.394;2022-08-07T03:59:25;5.23;;;1.40;;
6077;SDS011;3067;49.470;10.394;2022-08-07T04:01:53;6.33;;;1.70;;
6077;SDS011;3067;49.470;10.394;2022-08-07T04:04:21;7.93;;;1.47;;
6077;SDS011;3067;49.470;10.394;2022-08-07T04:06:49;2.97;;;1.43;;
6077;SDS011;3067;49.470;10.394;2022-08-07T04:09:17;5.57;;;1.40;;
6077;SDS011;3067;49.470;10.394;2022-08-07T04:11:44;1.43;;;1.33;;
6077;SDS011;3067;49.470;10.394;2022-08-07T04:14:13;2.73;;;1.10;;
6077;SDS011;3067;49.470;10.394;2022-08-07T04:16:40;2.63;;;1.30;;
6077;SDS011;3067;49.470;10.394;2022-08-07T04:19:08;1.40;;;1.40;;
6077;SDS011;3067;49.470;10.394;2022-08-07T04:21:35;2.23;;;1.10;;
6077;SDS011;3067;49.470;10.394;2022-08-07T04:24:03;1.40;;;1.37;;
6077;SDS011;3067;49.470;10.394;2022-08-07T04:26:34;4.83;;;1.33;;
6077;SDS011;3067;49.470;10.394;2022-08-07T04:29:05;1.63;;;1.40;;
6077;SDS011;3067;49.470;10.394;2022-08-07T04:31:36;4.00;;;1.40;;
6077;SDS011;3067;49.470;10.394;2022-08-07T04:34:03;1.60;;;1.50;;
6077;SDS011;3067;49.470;10.394;2022-08-07T04:36:31;3.90;;;1.60;;
6077;SDS011;3067;49.470;10.394;2022-08-07T04:38:58;1.43;;;1.20;;
6077;SDS011;3067;49.470;10.394;2022-08-07T04:41:26;2.37;;;1.63;;
6077;SDS011;3067;49.470;10.394;2022-08-07T04:43:53;1.80;;;1.70;;
6077;SDS011;3067;49.470;10.394;2022-08-07T04:46:22;5.63;;;1.60;;
6077;SDS011;3067;49.470;10.394;2022-08-07T04:48:54;3.33;;;1.60;;
6077;SDS011;3067;49.470;10.394;2022-08-07T04:51:27;5.60;;;1.80;;
6077;SDS011;3067;49.470;10.394;2022-08-07T04:53:57;3.80;;;1.70;;
6077;SDS011;3067;49.470;10.394;2022-08-07T04:56:28;1.70;;;1.60;;
6077;SDS011;3067;49.470;10.394;2022-08-07T04:58:59;2.50;;;1.57;;
6077;SDS011;3067;49.470;10.394;2022-08-07T05:01:30;2.03;;;1.50;;
6077;SDS011;3067;49.470;10.394;2022-08-07T05:04:07;1.57;;;1.57;;
6077;SDS011;3067;49.470;10.394;2022-08-07T05:06:37;1.90;;;1.80;;
6077;SDS011;3067;49.470;10.394;2022-08-07T05:09:08;3.00;;;1.80;;
6077;SDS011;3067;49.470;10.394;2022-08-07T05:11:38;3.53;;;1.57;;
6077;SDS011;3067;49.470;10.394;2022-08-07T05:14:08;1.97;;;1.60;;
6077;SDS011;3067;49.470;10.394;2022-08-07T05:16:37;3.43;;;1.50;;
6077;SDS011;3067;49.470;10.394;2022-08-07T05:19:07;5.40;;;1.97;;
6077;SDS011;3067;49.470;10.394;2022-08-07T05:21:36;4.93;;;2.00;;
6077;SDS011;3067;49.470;10.394;2022-08-07T05:24:05;3.53;;;1.80;;
6077;SDS011;3067;49.470;10.394;2022-08-07T05:26:35;2.00;;;1.43;;
6077;SDS011;3067;49.470;10.394;2022-08-07T05:29:04;10.67;;;2.70;;
6077;SDS011;3067;49.470;10.394;2022-08-07T05:31:33;4.63;;;1.30;;
6077;SDS011;3067;49.470;10.394;2022-08-07T05:34:03;1.63;;;1.53;;
6077;SDS011;3067;49.470;10.394;2022-08-07T05:36:32;6.20;;;1.50;;
6077;SDS011;3067;49.470;10.394;2022-08-07T05:39:00;1.30;;;1.20;;
6077;SDS011;3067;49.470;10.394;2022-08-07T05:41:27;1.23;;;1.13;;
6077;SDS011;3067;49.470;10.394;2022-08-07T05:43:55;2.53;;;1.30;;
6077;SDS011;3067;49.470;10.394;2022-08-07T05:46:23;1.50;;;1.40;;
6077;SDS011;3067;49.470;10.394;2022-08-07T05:48:51;1.30;;;1.20;;
6077;SDS011;3067;49.470;10.394;2022-08-07T05:51:19;2.90;;;1.23;;
6077;SDS011;3067;49.470;10.394;2022-08-07T05:53:49;1.47;;;1.37;;
6077;SDS011;3067;49.470;10.394;2022-08-07T05:56:17;2.17;;;1.23;;
6077;SDS011;3067;49.470;10.394;2022-08-07T05:58:45;3.50;;;1.30;;
6077;SDS011;3067;49.470;10.394;2022-08-07T06:01:13;1.30;;;1.23;;
6077;SDS011;3067;49.470;10.394;2022-08-07T06:03:42;2.03;;;1.20;;
6077;SDS011;3067;49.470;10.394;2022-08-07T06:06:11;1.13;;;1.13;;
6077;SDS011;3067;49.470;10.394;2022-08-07T06:08:38;6.07;;;1.30;;
6077;SDS011;3067;49.470;10.394;2022-08-07T06:11:08;6.57;;;1.33;;
6077;SDS011;3067;49.470;10.394;2022-08-07T06:13:35;3.70;;;1.50;;
6077;SDS011;3067;49.470;10.394;2022-08-07T06:16:03;1.10;;;1.10;;
6077;SDS011;3067;49.470;10.394;2022-08-07T06:18:32;1.10;;;1.10;;
6077;SDS011;3067;49.470;10.394;2022-08-07T06:21:00;6.87;;;1.37;;
6077;SDS011;3067;49.470;10.394;2022-08-07T06:23:28;1.73;;;1.30;;
6077;SDS011;3067;49.470;10.394;2022-08-07T06:25:55;1.63;;;1.13;;
6077;SDS011;3067;49.470;10.394;2022-08-07T06:28:24;1.30;;;1.20;;
6077;SDS011;3067;49.470;10.394;2022-08-07T06:30:52;2.80;;;1.30;;
6077;SDS011;3067;49.470;10.394;2022-08-07T06:33:19;4.00;;;1.37;;
6077;SDS011;3067;49.470;10.394;2022-08-07T06:35:47;1.40;;;1.40;;
6077;SDS011;3067;49.470;10.394;2022-08-07T06:38:15;1.33;;;1.10;;
6077;SDS011;3067;49.470;10.394;2022-08-07T06:40:44;1.20;;;1.20;;
6077;SDS011;3067;49.470;10.394;2022-08-07T06:43:12;2.40;;;1.40;;
6077;SDS011;3067;49.470;10.394;2022-08-07T06:45:42;5.20;;;1.27;;
6077;SDS011;3067;49.470;10.394;2022-08-07T06:48:09;1.93;;;1.27;;
6077;SDS011;3067;49.470;10.394;2022-08-07T06:50:37;4.20;;;1.17;;
6077;SDS011;3067;49.470;10.394;2022-08-07T06:53:06;1.10;;;1.00;;
6077;SDS011;3067;49.470;10.394;2022-08-07T06:55:34;3.23;;;1.00;;
6077;SDS011;3067;49.470;10.394;2022-08-07T06:58:02;1.00;;;1.00;;
6077;SDS011;3067;49.470;10.394;2022-08-07T07:00:31;1.20;;;1.10;;
6077;SDS011;3067;49.470;10.394;2022-08-07T07:03:02;2.13;;;1.10;;
6077;SDS011;3067;49.470;10.394;2022-08-07T07:05:29;6.33;;;1.10;;
6077;SDS011;3067;49.470;10.394;2022-08-07T07:07:57;2.17;;;1.00;;
6077;SDS011;3067;49.470;10.394;2022-08-07T07:10:26;1.47;;;1.40;;
6077;SDS011;3067;49.470;10.394;2022-08-07T07:12:54;2.40;;;1.10;;
6077;SDS011;3067;49.470;10.394;2022-08-07T07:15:24;1.53;;;1.00;;
6077;SDS011;3067;49.470;10.394;2022-08-07T07:17:53;2.60;;;1.23;;
6077;SDS011;3067;49.470;10.394;2022-08-07T07:20:25;0.97;;;0.97;;
6077;SDS011;3067;49.470;10.394;2022-08-07T07:22:53;1.00;;;1.00;;
6077;SDS011;3067;49.470;10.394;2022-08-07T07:25:21;3.63;;;1.40;;
6077;SDS011;3067;49.470;10.394;2022-08-07T07:27:49;1.17;;;1.17;;
6077;SDS011;3067;49.470;10.394;2022-08-07T07:30:17;2.63;;;1.00;;
6077;SDS011;3067;49.470;10.394;2022-08-07T07:32:45;6.40;;;0.90;;
6077;SDS011;3067;49.470;10.394;2022-08-07T07:35:13;1.20;;;1.20;;
6077;SDS011;3067;49.470;10.394;2022-08-07T07:37:41;1.37;;;1.27;;
6077;SDS011;3067;49.470;10.394;2022-08-07T07:40:11;1.17;;;1.07;;
6077;SDS011;3067;49.470;10.394;2022-08-07T07:42:40;1.83;;;1.17;;
6077;SDS011;3067;49.470;10.394;2022-08-07T07:45:08;1.37;;;1.13;;
6077;SDS011;3067;49.470;10.394;2022-08-07T07:47:38;1.23;;;1.10;;
6077;SDS011;3067;49.470;10.394;2022-08-07T07:50:08;2.93;;;1.27;;
6077;SDS011;3067;49.470;10.394;2022-08-07T07:52:35;1.93;;;1.10;;
6077;SDS011;3067;49.470;10.394;2022-08-07T07:55:05;1.17;;;1.10;;
6077;SDS011;3067;49.470;10.394;2022-08-07T07:57:33;2.10;;;1.10;;
6077;SDS011;3067;49.470;10.394;2022-08-07T08:00:01;1.20;;;1.10;;
6077;SDS011;3067;49.470;10.394;2022-08-07T08:02:30;1.30;;;1.20;;
6077;SDS011;3067;49.470;10.394;2022-08-07T08:04:59;2.43;;;1.00;;
6077;SDS011;3067;49.470;10.394;2022-08-07T08:07:27;2.23;;;1.10;;
6077;SDS011;3067;49.470;10.394;2022-08-07T08:09:56;1.30;;;1.20;;
6077;SDS011;3067;49.470;10.394;2022-08-07T08:12:25;1.20;;;1.10;;
6077;SDS011;3067;49.470;10.394;2022-08-07T08:14:53;1.20;;;1.10;;
6077;SDS011;3067;49.470;10.394;2022-08-07T08:17:20;1.53;;;1.00;;
6077;SDS011;3067;49.470;10.394;2022-08-07T08:19:48;1.93;;;1.10;;
6077;SDS011;3067;49.470;10.394;2022-08-07T08:22:17;0.97;;;0.97;;
6077;SDS011;3067;49.470;10.394;2022-08-07T08:25:04;1.37;;;1.00;;
6077;SDS011;3067;49.470;10.394;2022-08-07T08:27:52;1.00;;;1.00;;
6077;SDS011;3067;49.470;10.394;2022-08-07T08:30:20;1.57;;;1.30;;
6077;SDS011;3067;49.470;10.394;2022-08-07T08:32:48;1.40;;;1.30;;
6077;SDS011;3067;49.470;10.394;2022-08-07T08:35:19;1.10;;;1.10;;
6077;SDS011;3067;49.470;10.394;2022-08-07T08:37:48;1.00;;;1.00;;
6077;SDS011;3067;49.470;10.394;2022-08-07T08:40:18;7.23;;;1.07;;
6077;SDS011;3067;49.470;10.394;2022-08-07T08:42:48;3.37;;;1.00;;
6077;SDS011;3067;49.470;10.394;2022-08-07T08:45:20;1.43;;;0.97;;
6077;SDS011;3067;49.470;10.394;2022-08-07T08:47:51;1.07;;;1.00;;
6077;SDS011;3067;49.470;10.394;2022-08-07T08:50:23;0.90;;;0.90;;
6077;SDS011;3067;49.470;10.394;2022-08-07T08:52:52;1.00;;;1.00;;
6077;SDS011;3067;49.470;10.394;2022-08-07T08:55:24;1.10;;;1.00;;
6077;SDS011;3067;49.470;10.394;2022-08-07T08:57:57;0.93;;;0.93;;
6077;SDS011;3067;49.470;10.394;2022-08-07T09:00:29;1.00;;;1.00;;
6077;SDS011;3067;49.470;10.394;2022-08-07T09:02:59;1.00;;;0.90;;
6077;SDS011;3067;49.470;10.394;2022-08-07T09:05:31;1.00;;;1.00;;
6077;SDS011;3067;49.470;10.394;2022-08-07T09:08:03;1.13;;;1.10;;
6077;SDS011;3067;49.470;10.394;2022-08-07T09:10:36;4.80;;;1.10;;
6077;SDS011;3067;49.470;10.394;2022-08-07T09:13:09;1.00;;;1.00;;
6077;SDS011;3067;49.470;10.394;2022-08-07T09:15:43;1.07;;;0.90;;
6077;SDS011;3067;49.470;10.394;2022-08-07T09:18:18;1.10;;;1.10;;
6077;SDS011;3067;49.470;10.394;2022-08-07T09:20:50;3.43;;;0.90;;
6077;SDS011;3067;49.470;10.394;2022-08-07T09:23:23;0.80;;;0.80;;
6077;SDS011;3067;49.470;10.394;2022-08-07T09:25:54;2.40;;;0.90;;
6077;SDS011;3067;49.470;10.394;2022-08-07T09:28:26;3.27;;;0.90;;
6077;SDS011;3067;49.470;10.394;2022-08-07T09:30:57;1.00;;;0.90;;
6077;SDS011;3067;49.470;10.394;2022-08-07T09:33:36;0.93;;;0.93;;
6077;SDS011;3067;49.470;10.394;2022-08-07T09:36:08;1.27;;;1.17;;
6077;SDS011;3067;49.470;10.394;2022-08-07T09:38:39;3.10;;;1.10;;
6077;SDS011;3067;49.470;10.394;2022-08-07T09:41:12;6.43;;;0.90;;
6077;SDS011;3067;49.470;10.394;2022-08-07T09:43:50;1.07;;;0.97;;
6077;SDS011;3067;49.470;10.394;2022-08-07T09:46:25;1.43;;;1.00;;
6077;SDS011;3067;49.470;10.394;2022-08-07T09:48:57;1.53;;;0.90;;
6077;SDS011;3067;49.470;10.394;2022-08-07T09:51:30;0.93;;;0.93;;
6077;SDS011;3067;49.470;10.394;2022-08-07T09:54:01;1.10;;;1.10;;
6077;SDS011;3067;49.470;10.394;2022-08-07T09:56:40;1.87;;;0.80;;
6077;SDS011;3067;49.470;10.394;2022-08-07T09:59:28;1.07;;;0.97;;
6077;SDS011;3067;49.470;10.394;2022-08-07T10:01:59;0.93;;;0.90;;
6077;SDS011;3067;49.470;10.394;2022-08-07T10:04:34;0.90;;;0.90;;
6077;SDS011;3067;49.470;10.394;2022-08-07T10:09:55;0.90;;;0.90;;
6077;SDS011;3067;49.470;10.394;2022-08-07T10:12:32;2.20;;;1.10;;
6077;SDS011;3067;49.470;10.394;2022-08-07T10:15:11;1.47;;;1.10;;
6077;SDS011;3067;49.470;10.394;2022-08-07T10:17:48;3.10;;;1.10;;
6077;SDS011;3067;49.470;10.394;2022-08-07T10:20:21;1.43;;;0.80;;
6077;SDS011;3067;49.470;10.394;2022-08-07T10:23:02;0.90;;;0.90;;
6077;SDS011;3067;49.470;10.394;2022-08-07T10:25:38;2.90;;;0.93;;
6077;SDS011;3067;49.470;10.394;2022-08-07T10:28:22;2.30;;;0.90;;
6077;SDS011;3067;49.470;10.394;2022-08-07T10:31:01;4.00;;;1.40;;
6077;SDS011;3067;49.470;10.394;2022-08-07T10:33:32;1.20;;;1.00;;
6077;SDS011;3067;49.470;10.394;2022-08-07T10:36:13;8.33;;;1.17;;
6077;SDS011;3067;49.470;10.394;2022-08-07T10:38:44;2.10;;;1.10;;
6077;SDS011;3067;49.470;10.394;2022-08-07T10:41:18;0.90;;;0.90;;
6077;SDS011;3067;49.470;10.394;2022-08-07T10:43:47;1.10;;;1.00;;
6077;SDS011;3067;49.470;10.394;2022-08-07T10:46:17;1.67;;;0.77;;
6077;SDS011;3067;49.470;10.394;2022-08-07T10:48:51;1.13;;;0.77;;
6077;SDS011;3067;49.470;10.394;2022-08-07T10:51:21;5.87;;;0.90;;
6077;SDS011;3067;49.470;10.394;2022-08-07T10:53:55;0.93;;;0.93;;
6077;SDS011;3067;49.470;10.394;2022-08-07T10:56:24;0.87;;;0.87;;
6077;SDS011;3067;49.470;10.394;2022-08-07T10:59:00;0.70;;;0.70;;
6077;SDS011;3067;49.470;10.394;2022-08-07T11:01:37;2.27;;;0.80;;
6077;SDS011;3067;49.470;10.394;2022-08-07T11:04:10;2.17;;;1.00;;
6077;SDS011;3067;49.470;10.394;2022-08-07T11:06:44;1.67;;;0.80;;
6077;SDS011;3067;49.470;10.394;2022-08-07T11:09:16;1.10;;;0.90;;
6077;SDS011;3067;49.470;10.394;2022-08-07T11:11:46;1.53;;;1.00;;
6077;SDS011;3067;49.470;10.394;2022-08-07T11:14:16;2.00;;;0.70;;
6077;SDS011;3067;49.470;10.394;2022-08-07T11:16:47;0.70;;;0.70;;
6077;SDS011;3067;49.470;10.394;2022-08-07T11:19:19;0.90;;;0.90;;
6077;SDS011;3067;49.470;10.394;2022-08-07T11:21:51;1.83;;;0.80;;
6077;SDS011;3067;49.470;10.394;2022-08-07T11:24:35;0.73;;;0.73;;
6077;SDS011;3067;49.470;10.394;2022-08-07T11:27:06;0.90;;;0.90;;
6077;SDS011;3067;49.470;10.394;2022-08-07T11:29:35;0.77;;;0.77;;
6077;SDS011;3067;49.470;10.394;2022-08-07T11:32:04;2.50;;;0.70;;
6077;SDS011;3067;49.470;10.394;2022-08-07T11:34:37;0.77;;;0.77;;
6077;SDS011;3067;49.470;10.394;2022-08-07T11:37:10;0.80;;;0.80;;
6077;SDS011;3067;49.470;10.394;2022-08-07T11:39:45;0.80;;;0.80;;
6077;SDS011;3067;49.470;10.394;2022-08-07T11:42:17;0.80;;;0.80;;
6077;SDS011;3067;49.470;10.394;2022-08-07T11:44:48;1.10;;;0.97;;
6077;SDS011;3067;49.470;10.394;2022-08-07T11:47:21;0.70;;;0.70;;
6077;SDS011;3067;49.470;10.394;2022-08-07T11:52:41;0.80;;;0.80;;
6077;SDS011;3067;49.470;10.394;2022-08-07T11:55:13;0.90;;;0.87;;
6077;SDS011;3067;49.470;10.394;2022-08-07T11:57:46;0.90;;;0.70;;
6077;SDS011;3067;49.470;10.394;2022-08-07T12:00:19;1.40;;;0.73;;
6077;SDS011;3067;49.470;10.394;2022-08-07T12:03:10;2.97;;;0.90;;
6077;SDS011;3067;49.470;10.394;2022-08-07T12:05:44;0.90;;;0.90;;
6077;SDS011;3067;49.470;10.394;2022-08-07T12:08:15;0.80;;;0.80;;
6077;SDS011;3067;49.470;10.394;2022-08-07T12:10:46;0.70;;;0.70;;
6077;SDS011;3067;49.470;10.394;2022-08-07T12:13:17;0.80;;;0.80;;
6077;SDS011;3067;49.470;10.394;2022-08-07T12:15:49;0.97;;;0.80;;
6077;SDS011;3067;49.470;10.394;2022-08-07T12:18:18;0.90;;;0.70;;
6077;SDS011;3067;49.470;10.394;2022-08-07T12:20:51;0.70;;;0.70;;
6077;SDS011;3067;49.470;10.394;2022-08-07T12:23:30;0.80;;;0.80;;
6077;SDS011;3067;49.470;10.394;2022-08-07T12:26:03;0.90;;;0.90;;
6077;SDS011;3067;49.470;10.394;2022-08-07T12:28:33;0.70;;;0.70;;
6077;SDS011;3067;49.470;10.394;2022-08-07T12:31:03;1.00;;;0.90;;
6077;SDS011;3067;49.470;10.394;2022-08-07T12:33:31;0.80;;;0.80;;
6077;SDS011;3067;49.470;10.394;2022-08-07T12:36:00;1.03;;;0.67;;
6077;SDS011;3067;49.470;10.394;2022-08-07T12:38:30;0.90;;;0.90;;
6077;SDS011;3067;49.470;10.394;2022-08-07T12:40:58;1.97;;;0.70;;
6077;SDS011;3067;49.470;10.394;2022-08-07T12:43:27;1.63;;;0.70;;
6077;SDS011;3067;49.470;10.394;2022-08-07T12:45:59;2.20;;;0.70;;
6077;SDS011;3067;49.470;10.394;2022-08-07T12:48:33;0.80;;;0.73;;
6077;SDS011;3067;49.470;10.394;2022-08-07T12:51:03;0.70;;;0.70;;
6077;SDS011;3067;49.470;10.394;2022-08-07T12:53:39;0.80;;;0.80;;
6077;SDS011;3067;49.470;10.394;2022-08-07T12:56:11;0.80;;;0.80;;
6077;SDS011;3067;49.470;10.394;2022-08-07T12:58:43;0.80;;;0.80;;
6077;SDS011;3067;49.470;10.394;2022-08-07T13:01:15;0.70;;;0.70;;
6077;SDS011;3067;49.470;10.394;2022-08-07T13:06:35;1.30;;;0.80;;
6077;SDS011;3067;49.470;10.394;2022-08-07T13:09:09;0.70;;;0.70;;
6077;SDS011;3067;49.470;10.394;2022-08-07T13:11:40;1.13;;;0.77;;
6077;SDS011;3067;49.470;10.394;2022-08-07T13:14:15;0.70;;;0.70;;
6077;SDS011;3067;49.470;10.394;2022-08-07T13:16:46;0.80;;;0.80;;
6077;SDS011;3067;49.470;10.394;2022-08-07T13:19:16;2.45;;;0.90;;
6077;SDS011;3067;49.470;10.394;2022-08-07T13:21:49;2.40;;;0.60;;
6077;SDS011;3067;49.470;10.394;2022-08-07T13:24:20;1.20;;;0.70;;
6077;SDS011;3067;49.470;10.394;2022-08-07T13:26:50;0.70;;;0.70;;
6077;SDS011;3067;49.470;10.394;2022-08-07T13:29:20;1.00;;;0.80;;
6077;SDS011;3067;49.470;10.394;2022-08-07T13:31:49;0.73;;;0.70;;
6077;SDS011;3067;49.470;10.394;2022-08-07T13:34:20;3.50;;;0.93;;
6077;SDS011;3067;49.470;10.394;2022-08-07T13:36:51;0.93;;;0.80;;
6077;SDS011;3067;49.470;10.394;2022-08-07T13:39:27;0.70;;;0.70;;
6077;SDS011;3067;49.470;10.394;2022-08-07T13:41:57;1.20;;;0.70;;
6077;SDS011;3067;49.470;10.394;2022-08-07T13:44:26;2.65;;;0.70;;
6077;SDS011;3067;49.470;10.394;2022-08-07T13:46:55;0.60;;;0.60;;
6077;SDS011;3067;49.470;10.394;2022-08-07T13:49:23;0.95;;;0.70;;
6077;SDS011;3067;49.470;10.394;2022-08-07T13:51:51;0.73;;;0.60;;
6077;SDS011;3067;49.470;10.394;2022-08-07T13:54:20;0.70;;;0.65;;
6077;SDS011;3067;49.470;10.394;2022-08-07T13:56:55;0.73;;;0.70;;
6077;SDS011;3067;49.470;10.394;2022-08-07T13:59:26;2.88;;;0.70;;
6077;SDS011;3067;49.470;10.394;2022-08-07T14:01:57;0.60;;;0.60;;
6077;SDS011;3067;49.470;10.394;2022-08-07T14:04:32;0.80;;;0.80;;
6077;SDS011;3067;49.470;10.394;2022-08-07T14:07:02;7.78;;;0.85;;
6077;SDS011;3067;49.470;10.394;2022-08-07T14:09:31;0.70;;;0.70;;
6077;SDS011;3067;49.470;10.394;2022-08-07T14:12:03;5.40;;;0.70;;
6077;SDS011;3067;49.470;10.394;2022-08-07T14:14:37;0.70;;;0.70;;
6077;SDS011;3067;49.470;10.394;2022-08-07T14:17:04;1.77;;;0.70;;
6077;SDS011;3067;49.470;10.394;2022-08-07T14:19:34;4.82;;;0.73;;
6077;SDS011;3067;49.470;10.394;2022-08-07T14:22:02;1.77;;;0.80;;
6077;SDS011;3067;49.470;10.394;2022-08-07T14:24:32;0.80;;;0.68;;
6077;SDS011;3067;49.470;10.394;2022-08-07T14:27:01;2.15;;;0.85;;
6077;SDS011;3067;49.470;10.394;2022-08-07T14:29:31;0.70;;;0.70;;
6077;SDS011;3067;49.470;10.394;2022-08-07T14:32:00;0.60;;;0.60;;
6077;SDS011;3067;49.470;10.394;2022-08-07T14:34:28;0.60;;;0.60;;
6077;SDS011;3067;49.470;10.394;2022-08-07T14:36:57;0.60;;;0.60;;
6077;SDS011;3067;49.470;10.394;2022-08-07T14:39:25;0.60;;;0.60;;
6077;SDS011;3067;49.470;10.394;2022-08-07T14:41:53;1.08;;;0.80;;
6077;SDS011;3067;49.470;10.394;2022-08-07T14:44:23;1.95;;;0.70;;
6077;SDS011;3067;49.470;10.394;2022-08-07T14:46:52;0.70;;;0.70;;
6077;SDS011;3067;49.470;10.394;2022-08-07T14:49:22;0.88;;;0.88;;
6077;SDS011;3067;49.470;10.394;2022-08-07T14:51:52;2.05;;;0.70;;
6077;SDS011;3067;49.470;10.394;2022-08-07T14:54:20;0.80;;;0.70;;
6077;SDS011;3067;49.470;10.394;2022-08-07T14:56:48;10.38;;;0.90;;
6077;SDS011;3067;49.470;10.394;2022-08-07T14:59:19;2.05;;;0.70;;
6077;SDS011;3067;49.470;10.394;2022-08-07T15:01:47;0.93;;;0.60;;
6077;SDS011;3067;49.470;10.394;2022-08-07T15:04:16;1.80;;;0.70;;
6077;SDS011;3067;49.470;10.394;2022-08-07T15:06:43;0.70;;;0.70;;
6077;SDS011;3067;49.470;10.394;2022-08-07T15:09:14;1.90;;;0.80;;
6077;SDS011;3067;49.470;10.394;2022-08-07T15:11:43;8.18;;;0.80;;
6077;SDS011;3067;49.470;10.394;2022-08-07T15:14:15;0.70;;;0.70;;
6077;SDS011;3067;49.470;10.394;2022-08-07T15:16:43;0.80;;;0.80;;
6077;SDS011;3067;49.470;10.394;2022-08-07T15:19:12;1.15;;;0.90;;
6077;SDS011;3067;49.470;10.394;2022-08-07T15:21:43;0.87;;;0.70;;
6077;SDS011;3067;49.470;10.394;2022-08-07T15:24:13;2.00;;;0.80;;
6077;SDS011;3067;49.470;10.394;2022-08-07T15:26:42;1.67;;;0.83;;